createdAt,value
2023-04-10T00:04:56.247Z,2.16
2023-04-10T00:14:58.811Z,2.20
2023-04-10T00:25:01.198Z,2.26
2023-04-10T00:35:03.714Z,2.35
2023-04-10T00:45:07.168Z,2.51
2023-04-10T00:55:11.427Z,2.54
2023-04-10T01:05:14.612Z,2.66
2023-04-10T01:15:20.466Z,2.56
2023-04-10T01:25:36.401Z,2.49
2023-04-10T01:35:41.545Z,2.41
2023-04-10T01:45:45.357Z,2.30
2023-04-10T01:55:48.563Z,2.23
2023-04-10T02:06:16.392Z,2.22
2023-04-10T02:16:22.837Z,2.15
2023-04-10T02:26:25.657Z,2.08
2023-04-10T02:36:27.976Z,2.04
2023-04-10T02:46:30.267Z,1.95
2023-04-10T02:56:35.264Z,1.85
2023-04-10T03:06:37.715Z,1.74
2023-04-10T03:16:40.186Z,1.64
2023-04-10T03:26:42.666Z,1.54
2023-04-10T03:36:45.068Z,1.50
2023-04-10T03:46:47.325Z,1.47
2023-04-10T03:56:49.665Z,1.40
2023-04-10T04:06:52.135Z,1.25
2023-04-10T04:16:54.434Z,1.16
2023-04-10T04:26:59.495Z,1.05
2023-04-10T04:37:03.335Z,0.95
2023-04-10T04:47:05.649Z,0.87
2023-04-10T04:57:08.120Z,0.83
2023-04-10T05:07:10.690Z,0.84
2023-04-10T05:17:13.043Z,0.90
2023-04-10T05:27:15.355Z,0.99
2023-04-10T05:37:17.771Z,1.24
2023-04-10T05:47:19.990Z,1.49
2023-04-10T05:57:22.369Z,1.76
2023-04-10T06:07:24.842Z,2.06
2023-04-10T06:17:28.658Z,2.51
2023-04-10T06:27:31.439Z,3.12
2023-04-10T06:37:33.790Z,3.85
2023-04-10T06:47:36.468Z,4.70
2023-04-10T06:57:40.001Z,5.56
2023-04-10T07:07:42.985Z,6.14
2023-04-10T07:17:45.854Z,6.65
2023-04-10T07:27:48.618Z,7.26
2023-04-10T07:37:52.962Z,7.92
2023-04-10T07:49:07.396Z,8.55
2023-04-10T07:59:13.007Z,8.55
2023-04-10T08:09:16.079Z,10.09
2023-04-10T08:19:18.512Z,10.70
2023-04-10T08:29:20.840Z,11.36
2023-04-10T08:39:23.498Z,11.96
2023-04-10T08:49:54.265Z,12.53
2023-04-10T08:59:59.497Z,13.05
2023-04-10T09:10:03.058Z,13.34
2023-04-10T09:20:22.683Z,13.51
2023-04-10T09:30:37.722Z,13.78
2023-04-10T09:40:40.395Z,13.99
2023-04-10T09:50:42.969Z,14.57
2023-04-10T10:00:49.843Z,15.19
2023-04-10T10:10:54.815Z,15.47
2023-04-10T10:20:58.134Z,15.55
2023-04-10T10:31:03.093Z,16.35
2023-04-10T10:41:13.394Z,17.35
2023-04-10T10:51:15.821Z,17.96
2023-04-10T11:01:20.543Z,18.40
2023-04-10T11:11:27.691Z,18.84
2023-04-10T11:21:30.644Z,19.43
2023-04-10T11:31:34.771Z,19.56
2023-04-10T11:41:39.595Z,19.64
2023-04-10T11:51:46.952Z,20.04
2023-04-10T12:01:51.171Z,20.24
2023-04-10T12:11:57.093Z,20.39
2023-04-10T12:22:00.594Z,20.36
2023-04-10T12:32:10.044Z,20.76
2023-04-10T12:42:23.454Z,21.37
2023-04-10T12:52:25.775Z,21.30
2023-04-10T13:02:28.692Z,21.42
2023-04-10T13:12:31.149Z,21.41
2023-04-10T13:22:33.504Z,21.55
2023-04-10T13:32:36.024Z,21.76
2023-04-10T13:42:42.000Z,21.71
2023-04-10T13:52:46.530Z,21.65
2023-04-10T14:02:49.213Z,21.21
2023-04-10T14:12:51.848Z,21.06
2023-04-10T14:22:54.341Z,21.48
2023-04-10T14:32:57.355Z,21.39
2023-04-10T14:42:59.734Z,21.13
2023-04-10T14:53:02.963Z,21.11
2023-04-10T15:03:06.645Z,21.05
2023-04-10T15:13:09.115Z,20.65
2023-04-10T15:23:11.929Z,20.53
2023-04-10T15:33:14.429Z,20.42
2023-04-10T15:43:17.120Z,20.30
2023-04-10T15:53:19.648Z,20.04
2023-04-10T16:03:21.950Z,19.71
2023-04-10T16:13:24.501Z,19.31
2023-04-10T16:23:26.748Z,18.97
2023-04-10T16:33:30.357Z,18.74
2023-04-10T16:43:32.729Z,18.70
2023-04-10T16:53:36.382Z,18.41
2023-04-10T17:03:38.824Z,18.05
2023-04-10T17:13:41.679Z,17.49
2023-04-10T17:23:44.229Z,16.90
2023-04-10T17:33:46.810Z,16.39
2023-04-10T17:43:49.574Z,15.91
2023-04-10T17:53:51.949Z,15.51
2023-04-10T18:03:54.472Z,15.11
2023-04-10T18:13:56.836Z,14.68
2023-04-10T18:23:59.356Z,14.32
2023-04-10T18:34:07.759Z,13.97
2023-04-10T18:44:11.541Z,13.68
2023-04-10T18:54:14.253Z,13.41
2023-04-10T19:04:16.954Z,13.18
2023-04-10T19:14:19.776Z,12.93
2023-04-10T19:24:22.101Z,12.78
2023-04-10T19:34:24.529Z,12.79
2023-04-10T19:44:27.033Z,12.74
2023-04-10T19:54:30.267Z,12.65
2023-04-10T20:04:32.694Z,12.60
2023-04-10T20:14:36.034Z,12.51
2023-04-10T20:24:38.469Z,12.46
2023-04-10T20:34:40.996Z,12.36
2023-04-10T20:44:43.486Z,12.26
2023-04-10T20:54:45.744Z,12.13
2023-04-10T21:04:49.524Z,12.00
2023-04-10T21:14:52.016Z,11.92
2023-04-10T21:24:54.364Z,11.84
2023-04-10T21:34:56.622Z,11.80
2023-04-10T21:44:59.005Z,11.87
2023-04-10T21:55:01.251Z,11.98
2023-04-10T22:05:03.729Z,12.06
2023-04-10T22:15:08.160Z,12.16
2023-04-10T22:25:10.816Z,12.31
2023-04-10T22:35:14.313Z,12.47
2023-04-10T22:45:16.913Z,12.58
2023-04-10T22:55:19.283Z,12.59
2023-04-10T23:05:21.605Z,12.70
2023-04-10T23:15:23.698Z,12.74
2023-04-10T23:25:25.855Z,12.52
2023-04-10T23:35:28.060Z,12.47
2023-04-10T23:45:30.317Z,12.50
2023-04-10T23:55:32.491Z,12.45
